Time;durP1;ratioP1;P1;durP2;ratioP2;P2;SDS_P1;SDS_P2;PMS_P1;PMS_P2;Temp;Humidity;BMP_temperature;BMP_pressure;BME280_temperature;BME280_humidity;BME280_pressure;Samples;Min_cycle;Max_cycle;Signal;HPM_P1;HPM_P2
2023/03/05 00:00:13;;;;;;;11.23;5.70;;;3.30;99.90;;;;;;6183845;23;20020;-91
2023/03/05 00:02:39;;;;;;;14.80;6.72;;;3.30;99.90;;;;;;6185203;23;20017;-93
2023/03/05 00:05:05;;;;;;;14.57;5.95;;;3.30;99.90;;;;;;6186224;23;20020;-91
2023/03/05 00:07:31;;;;;;;11.43;5.60;;;3.30;99.90;;;;;;6203154;23;20009;-92
2023/03/05 00:10:04;;;;;;;13.82;6.18;;;3.20;99.90;;;;;;6181478;23;20008;-93
2023/03/05 00:12:30;;;;;;;13.40;6.90;;;3.20;99.90;;;;;;6211844;23;20009;-91
2023/03/05 00:14:56;;;;;;;11.80;5.57;;;3.20;99.90;;;;;;6185437;23;20045;-92
2023/03/05 00:17:21;;;;;;;11.65;5.70;;;3.20;99.90;;;;;;6183149;23;20032;-89
2023/03/05 00:19:47;;;;;;;12.20;6.22;;;3.20;99.90;;;;;;6181279;23;20056;-94
2023/03/05 00:22:13;;;;;;;11.35;5.90;;;3.20;99.90;;;;;;6181153;23;20024;-92
2023/03/05 00:24:38;;;;;;;11.20;5.78;;;3.10;99.90;;;;;;6181121;23;20033;-94
2023/03/05 00:27:04;;;;;;;12.73;5.80;;;3.10;99.90;;;;;;6181150;23;20042;-91
2023/03/05 00:29:30;;;;;;;9.23;6.15;;;3.10;99.90;;;;;;6182821;23;20024;-94
2023/03/05 00:31:55;;;;;;;10.35;5.35;;;3.10;99.90;;;;;;6179275;23;20047;-94
2023/03/05 00:34:24;;;;;;;10.35;6.07;;;3.10;99.90;;;;;;6184643;23;20005;-96
2023/03/05 00:36:51;;;;;;;15.15;6.70;;;3.10;99.90;;;;;;6181335;23;20081;-93
2023/03/05 00:39:18;;;;;;;14.50;6.30;;;3.10;99.90;;;;;;6182702;23;20002;-95
2023/03/05 00:41:44;;;;;;;9.18;5.93;;;3.00;99.90;;;;;;6183508;23;20009;-92
2023/03/05 00:44:10;;;;;;;13.63;6.85;;;3.00;99.90;;;;;;6183449;23;20032;-92
2023/03/05 00:46:36;;;;;;;15.20;6.28;;;3.00;99.90;;;;;;6182397;23;20073;-94
2023/03/05 00:49:02;;;;;;;9.85;5.82;;;3.00;99.90;;;;;;6179459;23;20116;-94
2023/03/05 00:51:28;;;;;;;15.85;7.05;;;3.00;99.90;;;;;;6182128;23;20027;-93
2023/03/05 00:53:54;;;;;;;10.10;6.10;;;3.00;99.90;;;;;;6183287;23;20009;-96
2023/03/05 00:56:20;;;;;;;14.40;7.07;;;3.00;99.90;;;;;;6179051;23;20013;-91
2023/03/05 00:58:45;;;;;;;12.50;6.78;;;3.00;99.90;;;;;;6181567;23;20021;-93
2023/03/05 01:01:12;;;;;;;12.82;7.47;;;2.90;99.90;;;;;;6181774;23;20409;-94
2023/03/05 01:03:37;;;;;;;13.98;7.28;;;2.90;99.90;;;;;;6183464;23;20017;-93
2023/03/05 01:06:06;;;;;;;14.15;7.28;;;2.90;99.90;;;;;;6185651;23;20021;-94
2023/03/05 01:08:31;;;;;;;15.45;7.25;;;2.90;99.90;;;;;;6185529;23;20001;-93
2023/03/05 01:10:57;;;;;;;16.65;8.40;;;2.90;99.90;;;;;;6186551;23;20001;-92
2023/03/05 01:13:23;;;;;;;16.98;7.90;;;2.90;99.90;;;;;;6188087;23;20009;-90
2023/03/05 01:15:49;;;;;;;18.55;8.20;;;2.90;99.90;;;;;;6188153;23;20001;-89
2023/03/05 01:18:16;;;;;;;14.85;7.80;;;2.90;99.90;;;;;;6187954;23;20013;-89
2023/03/05 01:20:42;;;;;;;12.65;7.40;;;2.90;99.90;;;;;;6186180;23;20001;-93
2023/03/05 01:23:08;;;;;;;14.20;7.95;;;2.90;99.90;;;;;;6184930;23;20310;-93
2023/03/05 01:25:33;;;;;;;16.23;8.00;;;2.90;99.90;;;;;;6185558;23;19997;-94
2023/03/05 01:27:59;;;;;;;15.00;8.65;;;2.90;99.90;;;;;;6187341;23;20013;-93
2023/03/05 01:30:25;;;;;;;18.15;9.25;;;2.90;99.90;;;;;;6187044;23;20044;-94
2023/03/05 01:32:50;;;;;;;20.98;9.35;;;2.80;99.90;;;;;;6185367;23;20052;-94
2023/03/05 01:35:18;;;;;;;25.48;8.77;;;2.90;99.90;;;;;;6179800;23;20005;-92
2023/03/05 01:37:44;;;;;;;17.85;8.20;;;2.80;99.90;;;;;;6183512;23;19997;-92
2023/03/05 01:40:12;;;;;;;17.33;9.10;;;2.80;99.90;;;;;;6187547;23;20020;-91
2023/03/05 01:42:37;;;;;;;14.05;9.05;;;2.80;99.90;;;;;;6184323;23;20013;-95
2023/03/05 01:45:09;;;;;;;21.63;9.40;;;2.80;99.90;;;;;;6182411;23;19997;-93
2023/03/05 01:47:35;;;;;;;19.67;10.27;;;2.80;99.90;;;;;;6185131;23;20096;-94
2023/03/05 01:50:06;;;;;;;21.45;10.05;;;2.80;99.90;;;;;;6185313;23;20033;-93
2023/03/05 01:52:33;;;;;;;19.98;10.02;;;2.80;99.90;;;;;;6186178;23;20009;-95
2023/03/05 01:55:13;;;;;;;22.77;10.45;;;2.80;99.90;;;;;;6179622;23;20044;-95
2023/03/05 01:57:46;;;;;;;17.02;10.70;;;2.80;99.90;;;;;;6181121;23;20253;-92
2023/03/05 02:00:17;;;;;;;23.10;11.23;;;2.80;99.90;;;;;;6182854;23;20004;-93
2023/03/05 02:02:43;;;;;;;;;;;2.80;99.90;;;;;;6179846;23;20005;-95
2023/03/05 02:05:13;;;;;;;17.48;9.77;;;2.80;99.90;;;;;;6205274;23;19916;-93
2023/03/05 02:07:41;;;;;;;20.63;10.80;;;2.80;99.90;;;;;;6182837;23;20061;-92
2023/03/05 02:10:19;;;;;;;20.88;10.55;;;2.80;99.90;;;;;;6180793;23;20316;-95
2023/03/05 02:12:47;;;;;;;23.30;11.25;;;2.70;99.90;;;;;;6177714;23;20016;-93
2023/03/05 02:15:14;;;;;;;22.30;11.90;;;2.80;99.90;;;;;;6179577;23;20013;-94
2023/03/05 02:17:51;;;;;;;24.23;12.00;;;2.80;99.90;;;;;;6180835;23;20009;-94
2023/03/05 02:20:27;;;;;;;26.45;11.45;;;2.80;99.90;;;;;;6208062;23;19989;-94
2023/03/05 02:22:54;;;;;;;36.47;12.60;;;2.80;99.90;;;;;;6207254;23;20001;-93
2023/03/05 02:25:28;;;;;;;27.83;12.15;;;2.80;99.90;;;;;;6182320;23;20019;-93
2023/03/05 02:28:23;;;;;;;22.15;11.23;;;2.80;99.90;;;;;;6204943;23;20036;-94
2023/03/05 02:30:49;;;;;;;24.83;11.30;;;2.80;99.90;;;;;;6179545;23;20276;-92
2023/03/05 02:33:16;;;;;;;26.50;10.32;;;2.80;99.90;;;;;;6180455;23;20005;-93
2023/03/05 02:35:42;;;;;;;22.52;11.10;;;2.80;99.90;;;;;;6178255;23;20051;-92
2023/03/05 02:38:09;;;;;;;21.25;11.30;;;2.70;99.90;;;;;;6204136;23;19993;-93
2023/03/05 02:40:35;;;;;;;22.60;10.88;;;2.80;99.90;;;;;;6179146;23;20005;-92
2023/03/05 02:43:00;;;;;;;22.35;10.95;;;2.80;99.90;;;;;;6179231;23;20139;-93
2023/03/05 02:45:26;;;;;;;19.33;9.93;;;2.70;99.90;;;;;;6177762;23;20012;-94
2023/03/05 02:47:52;;;;;;;19.27;10.02;;;2.70;99.90;;;;;;6179600;23;20009;-93
2023/03/05 02:50:17;;;;;;;19.60;9.93;;;2.70;99.90;;;;;;6180015;23;20088;-93
2023/03/05 02:52:43;;;;;;;23.85;9.50;;;2.70;99.90;;;;;;6174477;23;20080;-93
2023/03/05 02:55:09;;;;;;;21.58;8.65;;;2.70;99.90;;;;;;6173021;23;20009;-92
2023/03/05 02:57:35;;;;;;;23.13;9.60;;;2.70;99.90;;;;;;6173109;23;20064;-94
2023/03/05 03:00:02;;;;;;;15.30;9.00;;;2.70;99.90;;;;;;6170719;23;20012;-92
2023/03/05 03:02:28;;;;;;;15.75;8.68;;;2.70;99.90;;;;;;6169840;23;20024;-90
2023/03/05 03:04:53;;;;;;;19.63;9.07;;;2.70;99.90;;;;;;6170595;23;20017;-91
2023/03/05 03:07:19;;;;;;;15.30;8.93;;;2.70;99.90;;;;;;6177411;23;20009;-92
2023/03/05 03:09:45;;;;;;;17.98;9.07;;;2.70;99.90;;;;;;6179074;23;20001;-91
2023/03/05 03:12:11;;;;;;;14.40;8.05;;;2.70;99.90;;;;;;6201411;23;20013;-93
2023/03/05 03:14:39;;;;;;;17.58;8.75;;;2.70;99.90;;;;;;6177136;23;20027;-93
2023/03/05 03:17:16;;;;;;;13.32;6.78;;;2.70;99.90;;;;;;6173665;23;20013;-94
2023/03/05 03:19:43;;;;;;;19.60;7.63;;;2.70;99.90;;;;;;6168115;23;20048;-90
2023/03/05 03:22:13;;;;;;;18.13;7.82;;;2.70;99.90;;;;;;6143704;23;20125;-94
2023/03/05 03:24:40;;;;;;;19.20;8.10;;;2.70;99.90;;;;;;6166744;23;20009;-92
2023/03/05 03:27:06;;;;;;;13.35;7.90;;;2.70;99.90;;;;;;6165543;23;20116;-92
2023/03/05 03:29:32;;;;;;;16.75;7.30;;;2.70;99.90;;;;;;6175133;23;20001;-91
2023/03/05 03:31:58;;;;;;;16.80;7.60;;;2.70;99.90;;;;;;6183080;23;20072;-93
2023/03/05 03:34:24;;;;;;;14.18;7.57;;;2.70;99.90;;;;;;6166369;23;20013;-93
2023/03/05 03:36:51;;;;;;;17.58;7.50;;;2.70;99.90;;;;;;6165092;23;20005;-94
2023/03/05 03:39:18;;;;;;;13.68;6.70;;;2.70;99.90;;;;;;6163115;23;20005;-94
2023/03/05 03:41:46;;;;;;;15.02;6.97;;;2.70;99.90;;;;;;6164003;23;20004;-94
2023/03/05 03:44:12;;;;;;;18.00;7.35;;;2.70;99.90;;;;;;6164840;23;20473;-93
2023/03/05 03:46:39;;;;;;;16.38;6.93;;;2.70;99.90;;;;;;6165327;23;20008;-92
2023/03/05 03:49:07;;;;;;;11.68;6.15;;;2.70;99.90;;;;;;6164551;23;20120;-94
2023/03/05 03:51:33;;;;;;;14.30;6.47;;;2.70;99.90;;;;;;6163126;23;20043;-94
2023/03/05 03:53:59;;;;;;;11.75;6.05;;;2.70;99.90;;;;;;6170387;23;20005;-94
2023/03/05 03:56:25;;;;;;;14.38;6.95;;;2.70;99.90;;;;;;6205508;23;20001;-92
2023/03/05 03:58:52;;;;;;;11.63;6.40;;;2.70;99.90;;;;;;6181575;23;20005;-94
2023/03/05 04:01:19;;;;;;;11.68;6.03;;;2.70;99.90;;;;;;6180445;23;20005;-92
2023/03/05 04:03:44;;;;;;;13.05;6.85;;;2.70;99.90;;;;;;6182594;23;20009;-91
2023/03/05 04:06:10;;;;;;;10.40;5.97;;;2.60;99.90;;;;;;6182687;23;20013;-93
2023/03/05 04:08:35;;;;;;;11.88;6.18;;;2.70;99.90;;;;;;6180174;23;20009;-94
2023/03/05 04:11:02;;;;;;;11.57;5.45;;;2.60;99.90;;;;;;6181325;23;20020;-94
2023/03/05 04:13:27;;;;;;;10.60;5.78;;;2.70;99.90;;;;;;6181343;23;19997;-93
2023/03/05 04:15:53;;;;;;;16.80;6.32;;;2.60;99.90;;;;;;6181997;23;20013;-93
2023/03/05 04:18:19;;;;;;;13.38;5.93;;;2.60;99.90;;;;;;6181358;23;19993;-94
2023/03/05 04:20:45;;;;;;;13.05;5.57;;;2.60;99.90;;;;;;6157705;23;20028;-94
2023/03/05 04:23:11;;;;;;;13.75;6.28;;;2.60;99.90;;;;;;6181435;23;20108;-94
2023/03/05 04:25:36;;;;;;;11.55;5.45;;;2.60;99.90;;;;;;6181184;23;20016;-93
2023/03/05 04:28:02;;;;;;;12.52;5.65;;;2.60;99.90;;;;;;6183505;23;20016;-92
2023/03/05 04:30:28;;;;;;;12.07;5.93;;;2.60;99.90;;;;;;6181566;23;20083;-93
2023/03/05 04:32:54;;;;;;;11.45;5.90;;;2.60;99.90;;;;;;6179265;23;20017;-93
2023/03/05 04:35:19;;;;;;;14.68;6.28;;;2.60;99.90;;;;;;6179867;23;20012;-94
2023/03/05 04:37:46;;;;;;;14.32;5.95;;;2.60;99.90;;;;;;6180592;23;20012;-93
2023/03/05 04:40:12;;;;;;;12.38;5.57;;;2.70;99.90;;;;;;6183597;23;20009;-92
2023/03/05 04:42:37;;;;;;;9.82;5.03;;;2.60;99.90;;;;;;6184275;23;20016;-93
2023/03/05 04:45:04;;;;;;;8.75;4.65;;;2.70;99.90;;;;;;6187315;23;20016;-91
2023/03/05 04:47:29;;;;;;;10.10;4.88;;;2.70;99.90;;;;;;6188433;23;19989;-90
2023/03/05 04:49:55;;;;;;;12.73;4.82;;;2.70;99.90;;;;;;6183056;23;20040;-93
2023/03/05 04:52:21;;;;;;;10.57;5.60;;;2.70;99.90;;;;;;6206190;23;20019;-93
2023/03/05 04:54:46;;;;;;;12.98;5.15;;;2.70;99.90;;;;;;6180340;23;20001;-92
2023/03/05 04:57:12;;;;;;;8.38;4.57;;;2.60;99.90;;;;;;6178075;23;20011;-93
2023/03/05 04:59:38;;;;;;;8.60;4.70;;;2.70;99.90;;;;;;6178268;23;20012;-93
2023/03/05 05:02:04;;;;;;;10.77;4.43;;;2.70;99.90;;;;;;6179229;23;20028;-92
2023/03/05 05:04:30;;;;;;;8.27;4.07;;;2.70;99.90;;;;;;6177089;23;20013;-92
2023/03/05 05:06:57;;;;;;;10.55;4.45;;;2.70;99.90;;;;;;6171056;23;20011;-93
2023/03/05 05:09:23;;;;;;;8.57;3.67;;;2.60;99.90;;;;;;6175889;23;20005;-95
2023/03/05 05:11:49;;;;;;;9.13;4.20;;;2.60;99.90;;;;;;6181771;23;20085;-91
2023/03/05 05:14:15;;;;;;;7.50;3.60;;;2.60;99.90;;;;;;6185959;23;19997;-93
2023/03/05 05:16:42;;;;;;;6.90;3.78;;;2.60;99.90;;;;;;6182904;23;20004;-92
2023/03/05 05:19:08;;;;;;;9.57;3.72;;;2.60;99.90;;;;;;6179756;23;20044;-94
2023/03/05 05:21:34;;;;;;;8.45;3.72;;;2.60;99.90;;;;;;6180733;23;20069;-93
2023/03/05 05:24:00;;;;;;;7.40;3.85;;;2.60;99.90;;;;;;6179386;23;20017;-93
2023/03/05 05:26:26;;;;;;;8.05;4.05;;;2.60;99.90;;;;;;6174368;23;20005;-93
2023/03/05 05:28:52;;;;;;;8.20;3.47;;;2.60;99.90;;;;;;6171105;23;20051;-92
2023/03/05 05:31:18;;;;;;;7.80;3.28;;;2.60;99.90;;;;;;6171580;23;20017;-95
2023/03/05 05:33:44;;;;;;;8.23;3.72;;;2.60;99.90;;;;;;6172811;23;20093;-94
2023/03/05 05:36:13;;;;;;;11.60;3.45;;;2.70;99.90;;;;;;6175044;23;20009;-93
2023/03/05 05:38:40;;;;;;;6.95;3.35;;;2.70;99.90;;;;;;6175105;23;20076;-95
2023/03/05 05:41:09;;;;;;;7.55;3.55;;;2.70;99.90;;;;;;6172522;23;20034;-92
2023/03/05 05:43:35;;;;;;;8.93;3.63;;;2.70;99.90;;;;;;6173938;23;20005;-94
2023/03/05 05:46:10;;;;;;;6.13;3.45;;;2.70;99.90;;;;;;6173668;23;20005;-93
2023/03/05 05:48:36;;;;;;;7.07;3.47;;;2.70;99.90;;;;;;6172652;23;19998;-93
2023/03/05 05:51:08;;;;;;;9.85;3.40;;;2.60;99.90;;;;;;6171189;23;20072;-93
2023/03/05 05:53:34;;;;;;;6.93;3.72;;;2.70;99.90;;;;;;6170637;23;20009;-94
2023/03/05 05:55:59;;;;;;;8.82;4.00;;;2.70;99.90;;;;;;6170759;23;20015;-93
2023/03/05 05:58:25;;;;;;;9.75;3.63;;;2.70;99.90;;;;;;6173692;23;20005;-93
2023/03/05 06:00:51;;;;;;;12.35;3.90;;;2.70;99.90;;;;;;6178560;23;20012;-92
2023/03/05 06:03:18;;;;;;;7.75;3.45;;;2.70;99.90;;;;;;6177652;23;20060;-93
2023/03/05 06:05:43;;;;;;;6.30;3.17;;;2.60;99.90;;;;;;6178732;23;20031;-94
2023/03/05 06:08:09;;;;;;;6.05;2.80;;;2.70;99.90;;;;;;6178380;23;20065;-93
2023/03/05 06:10:35;;;;;;;7.78;3.60;;;2.70;99.90;;;;;;6178413;23;20005;-93
2023/03/05 06:13:04;;;;;;;7.05;3.60;;;2.60;99.90;;;;;;6180923;23;20033;-94
2023/03/05 06:15:30;;;;;;;6.30;3.33;;;2.70;99.90;;;;;;6179625;23;20009;-93
2023/03/05 06:17:58;;;;;;;7.72;3.35;;;2.70;99.90;;;;;;6172716;23;20005;-92
2023/03/05 06:20:23;;;;;;;6.78;3.53;;;2.70;99.90;;;;;;6172966;23;20027;-95
2023/03/05 06:22:49;;;;;;;4.95;3.08;;;2.60;99.90;;;;;;6175479;23;20001;-95
2023/03/05 06:25:15;;;;;;;8.20;3.40;;;2.60;99.90;;;;;;6173752;23;20036;-93
2023/03/05 06:27:40;;;;;;;9.38;3.67;;;2.70;99.90;;;;;;6177501;23;20032;-94
2023/03/05 06:30:06;;;;;;;6.35;3.25;;;2.60;99.90;;;;;;6176310;23;20012;-94
2023/03/05 06:32:32;;;;;;;9.65;3.85;;;2.70;99.90;;;;;;6176032;23;20005;-93
2023/03/05 06:34:58;;;;;;;8.25;3.67;;;2.70;99.90;;;;;;6175367;23;20025;-95
2023/03/05 06:37:25;;;;;;;5.72;3.40;;;2.60;99.90;;;;;;6176691;23;20006;-95
2023/03/05 06:39:50;;;;;;;6.38;3.30;;;2.70;99.90;;;;;;6179295;23;20009;-94
2023/03/05 06:42:19;;;;;;;8.57;4.50;;;2.70;99.90;;;;;;6174346;23;20001;-94
2023/03/05 06:44:45;;;;;;;7.70;4.05;;;2.60;99.90;;;;;;6173691;23;20027;-95
2023/03/05 06:47:11;;;;;;;9.35;3.92;;;2.60;99.90;;;;;;6176832;23;20021;-95
2023/03/05 06:49:37;;;;;;;10.32;4.28;;;2.70;99.90;;;;;;6174853;23;20028;-96
2023/03/05 06:52:05;;;;;;;7.00;4.28;;;2.70;99.90;;;;;;6172090;23;20024;-92
2023/03/05 06:54:31;;;;;;;6.82;3.88;;;2.70;99.90;;;;;;6178165;23;19989;-94
2023/03/05 06:56:57;;;;;;;8.70;4.53;;;2.60;99.90;;;;;;6179766;23;20020;-94
2023/03/05 06:59:23;;;;;;;8.52;4.45;;;2.70;99.90;;;;;;6175856;23;20001;-95
2023/03/05 07:01:50;;;;;;;12.20;4.53;;;2.70;99.90;;;;;;6179709;23;20004;-96
2023/03/05 07:04:16;;;;;;;7.38;3.97;;;2.70;99.90;;;;;;6176565;23;20044;-95
2023/03/05 07:06:42;;;;;;;13.05;4.78;;;2.80;99.90;;;;;;6176019;23;20005;-94
2023/03/05 07:09:15;;;;;;;9.20;4.80;;;2.80;99.90;;;;;;6178762;23;20443;-95
2023/03/05 07:11:43;;;;;;;9.45;4.95;;;2.80;99.90;;;;;;6208737;23;20017;-94
2023/03/05 07:14:08;;;;;;;8.73;4.80;;;2.80;99.90;;;;;;6183389;23;20099;-95
2023/03/05 07:16:34;;;;;;;8.20;4.18;;;2.80;99.90;;;;;;6184170;23;20527;-94
2023/03/05 07:19:05;;;;;;;8.65;4.55;;;2.90;99.90;;;;;;6184173;23;20001;-93
2023/03/05 07:21:33;;;;;;;11.05;4.82;;;2.90;99.90;;;;;;6209035;23;20009;-93
2023/03/05 07:24:03;;;;;;;8.50;4.88;;;2.90;99.90;;;;;;6181288;23;20004;-94
2023/03/05 07:26:32;;;;;;;8.82;3.95;;;2.80;99.90;;;;;;6208771;23;20001;-92
2023/03/05 07:28:58;;;;;;;8.80;4.80;;;2.80;99.90;;;;;;6182083;23;20001;-92
2023/03/05 07:31:30;;;;;;;9.07;4.13;;;2.80;99.90;;;;;;6180334;23;20013;-92
2023/03/05 07:33:57;;;;;;;11.25;5.07;;;2.80;99.90;;;;;;6180281;23;20044;-93
2023/03/05 07:36:24;;;;;;;8.07;5.00;;;2.80;99.90;;;;;;6177091;23;20001;-95
2023/03/05 07:38:57;;;;;;;8.90;4.40;;;2.70;99.90;;;;;;6206393;23;20613;-91
2023/03/05 07:41:23;;;;;;;8.23;5.35;;;2.80;99.90;;;;;;6173858;23;20068;-93
2023/03/05 07:43:51;;;;;;;9.10;5.80;;;2.80;99.90;;;;;;6175301;23;20059;-95
2023/03/05 07:46:19;;;;;;;9.50;5.32;;;2.80;99.90;;;;;;6180406;23;20009;-92
2023/03/05 07:48:45;;;;;;;9.60;5.45;;;2.80;99.90;;;;;;6177027;23;20034;-95
2023/03/05 07:51:14;;;;;;;11.48;5.35;;;2.80;99.90;;;;;;6177274;23;20066;-94
2023/03/05 07:53:44;;;;;;;9.98;5.20;;;2.90;99.90;;;;;;6177519;23;20043;-94
2023/03/05 07:56:10;;;;;;;6.60;3.97;;;2.90;99.90;;;;;;6178481;23;20005;-94
2023/03/05 07:58:36;;;;;;;10.80;5.65;;;2.80;99.90;;;;;;6179778;23;20012;-93
2023/03/05 08:01:03;;;;;;;16.98;5.78;;;2.90;99.90;;;;;;6178623;23;20013;-92
2023/03/05 08:03:28;;;;;;;9.77;4.95;;;2.90;99.90;;;;;;6179080;23;20096;-93
2023/03/05 08:05:54;;;;;;;11.70;6.55;;;2.90;99.90;;;;;;6185752;23;19993;-95
2023/03/05 08:08:20;;;;;;;16.85;7.95;;;2.90;99.90;;;;;;6183669;23;20019;-94
2023/03/05 08:10:46;;;;;;;29.25;13.13;;;2.90;99.90;;;;;;6173859;23;20036;-94
2023/03/05 08:13:11;;;;;;;32.28;14.35;;;2.90;99.90;;;;;;6177438;23;20005;-95
2023/03/05 08:15:37;;;;;;;25.40;13.02;;;3.00;99.90;;;;;;6177059;23;20005;-94
2023/03/05 08:18:03;;;;;;;16.73;7.95;;;2.90;99.90;;;;;;6177640;23;20032;-95
2023/03/05 08:20:33;;;;;;;10.65;6.07;;;2.90;99.90;;;;;;6181868;23;20005;-94
2023/03/05 08:22:59;;;;;;;13.40;5.43;;;3.00;99.90;;;;;;6182151;23;20036;-94
2023/03/05 08:25:26;;;;;;;12.85;5.45;;;2.90;99.90;;;;;;6181333;23;20251;-94
2023/03/05 08:27:52;;;;;;;12.63;5.78;;;3.00;99.90;;;;;;6179540;23;20000;-94
2023/03/05 08:30:21;;;;;;;15.02;6.53;;;2.90;99.90;;;;;;6178451;23;20065;-95
2023/03/05 08:32:53;;;;;;;12.18;5.93;;;3.00;99.90;;;;;;6204638;23;20013;-94
2023/03/05 08:35:19;;;;;;;16.73;7.40;;;2.90;99.90;;;;;;6202160;23;20475;-93
2023/03/05 08:37:45;;;;;;;12.90;6.03;;;3.00;99.90;;;;;;6180717;23;20005;-91
2023/03/05 08:40:11;;;;;;;11.55;5.72;;;3.00;99.90;;;;;;6173098;23;20069;-94
2023/03/05 08:42:37;;;;;;;15.55;6.53;;;3.00;99.90;;;;;;6169398;23;20005;-94
2023/03/05 08:45:04;;;;;;;10.55;5.38;;;2.90;99.90;;;;;;6169129;23;20397;-93
2023/03/05 08:47:29;;;;;;;8.93;5.60;;;3.00;99.90;;;;;;6169493;23;20001;-93
2023/03/05 08:49:56;;;;;;;12.00;5.95;;;3.00;99.90;;;;;;6169417;23;20066;-95
2023/03/05 08:52:22;;;;;;;13.30;6.70;;;3.00;99.90;;;;;;6173198;23;20387;-94
2023/03/05 08:54:48;;;;;;;12.30;6.10;;;3.00;99.90;;;;;;6167351;23;20004;-95
2023/03/05 08:57:14;;;;;;;16.92;5.30;;;3.00;99.90;;;;;;6168941;23;20013;-94
2023/03/05 08:59:39;;;;;;;12.98;6.30;;;2.90;99.90;;;;;;6166895;23;20012;-93
2023/03/05 09:02:09;;;;;;;15.05;6.75;;;2.90;99.90;;;;;;6165650;23;20002;-93
2023/03/05 09:04:36;;;;;;;11.13;6.43;;;3.00;99.90;;;;;;6167537;23;20067;-94
2023/03/05 09:07:02;;;;;;;12.43;5.90;;;2.90;99.90;;;;;;6166045;23;20009;-94
2023/03/05 09:09:28;;;;;;;14.70;6.10;;;2.90;99.90;;;;;;6170901;23;20455;-94
2023/03/05 09:11:56;;;;;;;11.50;5.70;;;2.90;99.90;;;;;;6174356;23;20081;-94
2023/03/05 09:14:22;;;;;;;13.50;6.93;;;2.90;99.90;;;;;;6177375;23;19993;-94
2023/03/05 09:16:48;;;;;;;13.93;6.68;;;3.00;99.90;;;;;;6172162;23;20059;-94
2023/03/05 09:19:14;;;;;;;15.13;7.05;;;3.00;99.90;;;;;;6165050;23;20012;-93
2023/03/05 09:21:40;;;;;;;14.23;7.30;;;3.00;99.90;;;;;;6163507;23;20012;-94
2023/03/05 09:24:07;;;;;;;26.08;11.23;;;3.00;99.90;;;;;;6162982;23;20021;-94
2023/03/05 09:26:32;;;;;;;30.27;13.23;;;3.00;99.90;;;;;;6162380;23;20009;-94
2023/03/05 09:28:58;;;;;;;17.05;6.97;;;3.00;99.90;;;;;;6162654;23;20301;-94
2023/03/05 09:31:24;;;;;;;14.93;7.50;;;3.00;99.90;;;;;;6166113;23;20052;-96
2023/03/05 09:33:49;;;;;;;13.77;6.40;;;3.00;99.90;;;;;;6171918;23;20398;-94
2023/03/05 09:36:24;;;;;;;11.85;6.55;;;3.00;99.90;;;;;;6163791;23;20005;-94
2023/03/05 09:38:50;;;;;;;10.38;6.15;;;3.00;99.90;;;;;;6160937;23;20008;-94
2023/03/05 09:41:22;;;;;;;15.07;6.82;;;3.00;99.90;;;;;;6160324;23;20016;-93
2023/03/05 09:43:59;;;;;;;12.27;5.80;;;3.00;99.90;;;;;;6160413;23;20023;-93
2023/03/05 09:46:49;;;;;;;14.27;7.13;;;3.00;99.90;;;;;;6166935;23;20009;-93
2023/03/05 09:50:06;;;;;;;13.20;6.72;;;3.00;99.90;;;;;;6161729;23;20013;-93
2023/03/05 09:52:45;;;;;;;14.40;6.60;;;3.00;99.90;;;;;;6104902;23;20023;-93
2023/03/05 09:55:26;;;;;;;14.68;6.85;;;3.00;99.90;;;;;;6168721;23;20034;-94
2023/03/05 09:57:55;;;;;;;16.70;6.20;;;3.00;99.90;;;;;;6164076;23;20048;-93
2023/03/05 10:00:59;;;;;;;11.80;5.82;;;3.10;99.90;;;;;;6164414;23;20017;-94
2023/03/05 10:03:29;;;;;;;14.57;6.88;;;3.00;99.90;;;;;;6048718;23;20007;-94
2023/03/05 10:05:58;;;;;;;13.30;7.57;;;3.00;99.90;;;;;;6068751;23;20038;-93
2023/03/05 10:08:30;;;;;;;12.13;6.28;;;3.00;99.90;;;;;;6045233;23;20011;-93
2023/03/05 10:11:00;;;;;;;12.50;6.90;;;3.00;99.90;;;;;;6043281;23;20447;-92
2023/03/05 10:13:35;;;;;;;11.40;6.50;;;3.00;99.90;;;;;;6068180;23;20089;-93
2023/03/05 10:16:09;;;;;;;12.77;6.45;;;3.00;99.90;;;;;;6069320;23;20636;-92
2023/03/05 10:18:53;;;;;;;12.00;6.80;;;3.00;99.90;;;;;;6081992;23;20026;-90
2023/03/05 10:21:34;;;;;;;12.00;6.30;;;3.00;99.90;;;;;;6056823;23;20003;-92
2023/03/05 10:24:38;;;;;;;12.90;6.97;;;3.00;99.90;;;;;;6075098;23;20084;-93
2023/03/05 10:27:16;;;;;;;14.80;7.07;;;3.00;99.90;;;;;;6045634;23;20011;-94
2023/03/05 10:30:17;;;;;;;13.63;7.78;;;3.00;99.90;;;;;;6079432;23;20017;-94
2023/03/05 10:33:08;;;;;;;14.20;7.13;;;3.00;99.90;;;;;;6053533;23;19995;-90
2023/03/05 10:35:51;;;;;;;12.68;6.75;;;3.00;99.90;;;;;;6084709;23;20006;-95
2023/03/05 10:38:22;;;;;;;12.57;6.38;;;3.00;99.90;;;;;;6161852;23;20005;-94
2023/03/05 10:40:53;;;;;;;12.40;6.97;;;3.00;99.90;;;;;;6177242;23;20005;-96
2023/03/05 10:43:24;;;;;;;13.23;7.70;;;3.00;99.90;;;;;;6176788;23;20004;-95
2023/03/05 10:45:52;;;;;;;17.70;6.88;;;3.00;99.90;;;;;;6178729;23;20032;-91
2023/03/05 10:48:32;;;;;;;15.07;8.10;;;3.00;99.90;;;;;;6182422;23;20062;-94
2023/03/05 10:51:26;;;;;;;15.77;7.87;;;3.10;99.90;;;;;;6180768;23;20001;-94
2023/03/05 10:54:03;;;;;;;13.90;7.68;;;3.10;99.90;;;;;;6179066;23;20351;-94
2023/03/05 10:56:30;;;;;;;16.27;7.20;;;3.20;99.90;;;;;;6176476;23;20005;-94
2023/03/05 10:58:56;;;;;;;14.05;7.47;;;3.20;99.90;;;;;;6173371;23;20015;-95
2023/03/05 11:01:27;;;;;;;13.13;7.22;;;3.30;99.90;;;;;;6173081;23;20005;-94
2023/03/05 11:03:54;;;;;;;15.52;8.50;;;3.30;99.90;;;;;;6177875;23;20038;-96
2023/03/05 11:06:42;;;;;;;17.55;8.68;;;3.40;99.90;;;;;;6172547;23;20001;-94
2023/03/05 11:09:37;;;;;;;15.93;8.98;;;3.40;99.90;;;;;;6170795;23;19997;-95
2023/03/05 11:12:20;;;;;;;17.90;9.18;;;3.40;99.90;;;;;;6170829;23;20131;-94
2023/03/05 11:15:09;;;;;;;18.73;9.15;;;3.40;99.90;;;;;;6159211;23;20016;-93
2023/03/05 11:17:43;;;;;;;14.82;8.48;;;3.50;99.90;;;;;;6211857;23;19989;-95
2023/03/05 11:20:30;;;;;;;18.77;9.98;;;3.50;99.90;;;;;;6206193;23;20008;-95
2023/03/05 11:23:08;;;;;;;26.73;12.57;;;3.60;99.90;;;;;;6175895;23;20008;-93
2023/03/05 11:25:34;;;;;;;17.40;8.50;;;3.60;99.90;;;;;;6176772;23;20001;-94
2023/03/05 11:28:02;;;;;;;22.10;10.23;;;3.70;99.90;;;;;;6174693;23;20017;-95
2023/03/05 11:30:31;;;;;;;17.33;10.30;;;3.80;99.90;;;;;;6179101;23;20017;-94
2023/03/05 11:33:29;;;;;;;16.50;10.10;;;3.80;99.90;;;;;;6182286;23;19999;-92
2023/03/05 11:36:16;;;;;;;15.73;8.55;;;3.90;99.90;;;;;;6132707;23;20033;-91
2023/03/05 11:39:09;;;;;;;14.18;8.75;;;4.00;99.90;;;;;;6187449;23;19998;-93
2023/03/05 11:41:48;;;;;;;14.73;8.73;;;4.00;99.90;;;;;;6159992;23;20021;-91
2023/03/05 11:44:21;;;;;;;13.75;8.77;;;4.00;99.90;;;;;;6184858;23;20024;-92
2023/03/05 11:46:51;;;;;;;14.93;8.05;;;4.10;99.90;;;;;;6183658;23;20013;-92
2023/03/05 11:49:24;;;;;;;15.33;8.43;;;4.20;99.90;;;;;;6207582;23;20013;-94
2023/03/05 11:52:10;;;;;;;17.17;8.52;;;4.20;99.90;;;;;;6181068;23;20044;-94
2023/03/05 11:54:47;;;;;;;17.13;8.35;;;4.30;99.90;;;;;;6184597;23;19986;-93
2023/03/05 11:57:14;;;;;;;13.93;7.63;;;4.30;99.90;;;;;;6186455;23;20024;-92
2023/03/05 11:59:41;;;;;;;15.73;8.20;;;4.40;99.90;;;;;;6209595;23;19997;-92
2023/03/05 12:02:25;;;;;;;12.43;6.32;;;4.40;99.90;;;;;;6179421;23;19993;-95
2023/03/05 12:04:51;;;;;;;10.60;6.55;;;4.50;99.90;;;;;;6175368;23;20024;-95
2023/03/05 12:07:36;;;;;;;10.75;5.38;;;4.50;99.90;;;;;;6207826;23;20001;-94
2023/03/05 12:10:03;;;;;;;13.82;6.13;;;4.50;99.90;;;;;;6202369;23;20009;-94
2023/03/05 12:12:31;;;;;;;8.68;5.78;;;4.50;99.90;;;;;;6179680;23;20414;-93
2023/03/05 12:14:56;;;;;;;8.95;5.85;;;4.50;99.90;;;;;;6171578;23;20008;-93
2023/03/05 12:17:31;;;;;;;10.07;5.53;;;4.50;99.90;;;;;;6167889;23;20005;-94
2023/03/05 12:20:03;;;;;;;10.45;5.97;;;4.60;99.90;;;;;;6194523;23;20083;-93
2023/03/05 12:22:40;;;;;;;10.00;5.85;;;4.60;99.90;;;;;;6194862;23;20017;-93
2023/03/05 12:25:52;;;;;;;10.63;5.40;;;4.60;99.90;;;;;;6194118;23;20004;-95
2023/03/05 12:28:36;;;;;;;7.68;4.95;;;4.60;99.90;;;;;;6178594;23;20519;-95
2023/03/05 12:31:04;;;;;;;9.90;5.30;;;4.60;99.90;;;;;;6163773;23;20013;-95
2023/03/05 12:33:37;;;;;;;7.43;4.57;;;4.70;99.90;;;;;;6164488;23;20421;-94
2023/03/05 12:36:32;;;;;;;9.10;4.75;;;4.80;99.90;;;;;;6162074;23;20015;-93
2023/03/05 12:38:58;;;;;;;8.88;4.57;;;4.90;99.90;;;;;;6196276;23;20001;-92
2023/03/05 12:41:24;;;;;;;6.93;4.40;;;4.90;99.90;;;;;;6172711;23;20033;-92
2023/03/05 12:44:05;;;;;;;8.27;4.95;;;5.00;99.90;;;;;;6170556;23;20001;-94
2023/03/05 12:46:36;;;;;;;7.53;4.28;;;5.10;99.90;;;;;;6170932;23;20009;-95
2023/03/05 12:49:37;;;;;;;5.68;3.53;;;5.20;99.90;;;;;;6170936;23;20009;-91
2023/03/05 12:52:04;;;;;;;7.65;4.18;;;5.20;99.90;;;;;;6162910;23;20036;-95
2023/03/05 12:54:39;;;;;;;8.65;4.30;;;5.30;99.90;;;;;;6161068;23;20015;-95
2023/03/05 12:57:17;;;;;;;7.07;4.05;;;5.30;99.90;;;;;;6160203;23;19997;-94
2023/03/05 13:00:07;;;;;;;9.15;4.30;;;5.30;99.90;;;;;;6159743;23;20005;-94